Time;durP1;ratioP1;P1;durP2;ratioP2;P2;SDS_P1;SDS_P2;PMS_P1;PMS_P2;Temp;Humidity;BMP_temperature;BMP_pressure;BME280_temperature;BME280_humidity;BME280_pressure;Samples;Min_cycle;Max_cycle;Signal;HPM_P1;HPM_P2
2022/08/31 00:05:45;;;;;;;1.02;1.02;;;;;;;;;;5034286;28;20217;-83
2022/08/31 00:08:13;;;;;;;0.90;0.90;;;;;;;;;;5053763;23;20253;-78
2022/08/31 00:10:44;;;;;;;1.00;1.00;;;;;;;;;;5041495;28;20289;-78
2022/08/31 00:13:12;;;;;;;2.40;1.30;;;;;;;;;;5054065;28;20292;-78
2022/08/31 00:15:41;;;;;;;0.85;0.85;;;;;;;;;;5054834;28;20684;-77
2022/08/31 00:18:09;;;;;;;7.95;1.25;;;;;;;;;;5055284;28;20260;-78
2022/08/31 00:20:37;;;;;;;1.30;1.20;;;;;;;;;;5055680;28;20233;-77
2022/08/31 00:23:07;;;;;;;1.27;1.20;;;;;;;;;;5055612;28;20288;-77
2022/08/31 00:25:35;;;;;;;1.70;1.60;;;;;;;;;;5055169;28;20293;-78
2022/08/31 00:28:03;;;;;;;1.10;1.10;;;;;;;;;;5054861;28;20226;-78
2022/08/31 00:30:31;;;;;;;1.40;1.30;;;;;;;;;;5055532;28;20343;-79
2022/08/31 00:33:00;;;;;;;0.60;0.60;;;;;;;;;;5055563;28;20248;-79
2022/08/31 00:35:29;;;;;;;1.75;1.25;;;;;;;;;;5055448;28;20280;-77
2022/08/31 00:37:57;;;;;;;0.95;0.95;;;;;;;;;;5054704;28;20222;-78
2022/08/31 00:40:25;;;;;;;0.90;0.90;;;;;;;;;;5040915;28;20578;-78
2022/08/31 00:42:53;;;;;;;1.45;1.35;;;;;;;;;;5034774;28;20202;-79
2022/08/31 00:45:21;;;;;;;1.35;1.35;;;;;;;;;;5034777;28;20298;-79
2022/08/31 00:47:49;;;;;;;0.98;0.98;;;;;;;;;;5034471;28;20222;-79
2022/08/31 00:50:18;;;;;;;0.85;0.85;;;;;;;;;;5034903;28;20309;-77
2022/08/31 00:52:50;;;;;;;1.08;1.08;;;;;;;;;;5035133;28;20230;-79
2022/08/31 00:55:23;;;;;;;1.20;1.10;;;;;;;;;;5034540;28;20206;-79
2022/08/31 00:57:53;;;;;;;1.10;1.10;;;;;;;;;;5034411;28;20261;-79
2022/08/31 01:00:24;;;;;;;1.10;1.10;;;;;;;;;;5035012;28;20290;-78
2022/08/31 01:02:52;;;;;;;2.05;1.00;;;;;;;;;;5034779;28;20226;-79
2022/08/31 01:05:21;;;;;;;0.88;0.88;;;;;;;;;;5034724;28;20293;-78
2022/08/31 01:07:50;;;;;;;1.02;1.00;;;;;;;;;;5033612;28;20236;-78
2022/08/31 01:10:20;;;;;;;0.90;0.90;;;;;;;;;;5033986;28;20294;-78
2022/08/31 01:12:48;;;;;;;1.00;1.00;;;;;;;;;;5033538;28;20245;-77
2022/08/31 01:15:16;;;;;;;0.80;0.80;;;;;;;;;;5034204;28;20670;-78
2022/08/31 01:17:45;;;;;;;0.95;0.95;;;;;;;;;;5034038;28;20222;-78
2022/08/31 01:20:22;;;;;;;0.90;0.90;;;;;;;;;;5034454;28;20285;-78
2022/08/31 01:23:13;;;;;;;1.20;1.10;;;;;;;;;;5034059;28;20201;-78
2022/08/31 01:25:43;;;;;;;1.00;1.00;;;;;;;;;;5034617;28;20289;-77
2022/08/31 01:28:11;;;;;;;1.10;1.00;;;;;;;;;;5034269;28;20223;-78
2022/08/31 01:30:39;;;;;;;1.40;1.30;;;;;;;;;;5033927;28;20222;-78
2022/08/31 01:33:08;;;;;;;0.73;0.73;;;;;;;;;;5034462;28;20288;-78
2022/08/31 01:35:36;;;;;;;1.15;1.10;;;;;;;;;;5034130;28;20252;-78
2022/08/31 01:38:04;;;;;;;1.08;1.08;;;;;;;;;;5033510;28;20763;-79
2022/08/31 01:40:36;;;;;;;1.08;1.08;;;;;;;;;;5033832;28;20206;-79
2022/08/31 01:43:04;;;;;;;0.90;0.85;;;;;;;;;;5033977;28;20296;-78
2022/08/31 01:45:32;;;;;;;0.80;0.80;;;;;;;;;;5033845;28;20236;-78
2022/08/31 01:47:59;;;;;;;0.90;0.90;;;;;;;;;;5033816;28;20597;-77
2022/08/31 01:50:27;;;;;;;1.20;1.10;;;;;;;;;;5034468;28;20254;-78
2022/08/31 01:52:55;;;;;;;0.93;0.93;;;;;;;;;;5034245;28;20290;-77
2022/08/31 01:55:22;;;;;;;1.00;1.00;;;;;;;;;;5034242;28;20288;-79
2022/08/31 01:57:51;;;;;;;0.90;0.90;;;;;;;;;;5034022;28;20234;-79
2022/08/31 02:00:19;;;;;;;1.15;1.15;;;;;;;;;;5033626;28;20289;-79
2022/08/31 02:02:47;;;;;;;1.13;1.13;;;;;;;;;;5034232;28;20631;-79
2022/08/31 02:05:14;;;;;;;0.80;0.80;;;;;;;;;;5034094;28;20289;-78
2022/08/31 02:07:42;;;;;;;0.90;0.90;;;;;;;;;;5033341;28;20317;-78
2022/08/31 02:10:10;;;;;;;1.00;1.00;;;;;;;;;;5033535;28;20262;-78
2022/08/31 02:12:37;;;;;;;2.35;1.50;;;;;;;;;;5033395;28;20293;-77
2022/08/31 02:15:08;;;;;;;1.10;1.10;;;;;;;;;;5033904;28;20293;-78
2022/08/31 02:17:36;;;;;;;0.90;0.90;;;;;;;;;;5033139;28;20421;-78
2022/08/31 02:20:05;;;;;;;1.05;1.05;;;;;;;;;;5033904;28;20233;-78
2022/08/31 02:22:32;;;;;;;1.00;1.00;;;;;;;;;;5033981;28;20584;-78
2022/08/31 02:25:00;;;;;;;0.90;0.90;;;;;;;;;;5037153;28;20202;-78
2022/08/31 02:27:28;;;;;;;0.85;0.85;;;;;;;;;;5037283;28;20298;-79
2022/08/31 02:29:55;;;;;;;0.80;0.80;;;;;;;;;;5037680;28;20218;-78
2022/08/31 02:32:24;;;;;;;0.90;0.90;;;;;;;;;;5037417;28;20291;-79
2022/08/31 02:34:53;;;;;;;0.93;0.90;;;;;;;;;;5037822;28;20613;-77
2022/08/31 02:37:20;;;;;;;0.90;0.90;;;;;;;;;;5037074;28;20734;-77
2022/08/31 02:39:48;;;;;;;1.02;1.00;;;;;;;;;;5037332;28;20241;-77
2022/08/31 02:42:15;;;;;;;0.95;0.95;;;;;;;;;;5036898;28;20265;-78
2022/08/31 02:44:43;;;;;;;1.20;1.10;;;;;;;;;;5037036;28;20206;-77
2022/08/31 02:47:10;;;;;;;1.10;1.10;;;;;;;;;;5036260;28;20753;-77
2022/08/31 02:49:39;;;;;;;1.98;1.25;;;;;;;;;;5037352;28;20274;-78
2022/08/31 02:52:06;;;;;;;1.00;1.00;;;;;;;;;;5036553;28;20198;-78
2022/08/31 02:54:34;;;;;;;1.02;1.02;;;;;;;;;;5036858;28;20205;-78
2022/08/31 02:57:02;;;;;;;1.40;1.30;;;;;;;;;;5036297;28;20213;-78
2022/08/31 02:59:30;;;;;;;1.40;1.30;;;;;;;;;;5037159;28;20233;-78
2022/08/31 03:01:57;;;;;;;2.03;1.20;;;;;;;;;;5036895;28;20230;-79
2022/08/31 03:04:25;;;;;;;1.10;1.10;;;;;;;;;;5036434;28;20209;-78
2022/08/31 03:06:54;;;;;;;1.38;1.02;;;;;;;;;;5035949;28;20645;-78
2022/08/31 03:09:21;;;;;;;1.20;1.20;;;;;;;;;;5036351;28;20266;-79
2022/08/31 03:11:48;;;;;;;1.17;1.10;;;;;;;;;;5036259;28;20285;-78
2022/08/31 03:14:16;;;;;;;1.52;1.20;;;;;;;;;;5036697;28;20286;-79
2022/08/31 03:16:44;;;;;;;1.10;1.10;;;;;;;;;;5036131;28;20245;-78
2022/08/31 03:19:12;;;;;;;1.83;1.35;;;;;;;;;;5036403;28;20222;-78
2022/08/31 03:21:39;;;;;;;0.93;0.93;;;;;;;;;;5037359;28;20742;-78
2022/08/31 03:24:09;;;;;;;1.10;1.10;;;;;;;;;;5037743;28;20206;-79
2022/08/31 03:26:37;;;;;;;1.05;1.05;;;;;;;;;;5036538;28;20630;-79
2022/08/31 03:29:04;;;;;;;1.20;1.10;;;;;;;;;;5039177;28;20285;-78
2022/08/31 03:31:32;;;;;;;1.10;1.10;;;;;;;;;;5036923;28;20257;-78
2022/08/31 03:34:00;;;;;;;1.52;1.08;;;;;;;;;;5037332;28;20288;-78
2022/08/31 03:36:27;;;;;;;1.38;1.27;;;;;;;;;;5036187;28;20241;-78
2022/08/31 03:38:55;;;;;;;0.95;0.95;;;;;;;;;;5036321;28;20305;-78
2022/08/31 03:41:25;;;;;;;1.40;1.30;;;;;;;;;;5036705;28;20305;-79
2022/08/31 03:43:54;;;;;;;1.40;1.30;;;;;;;;;;5037273;28;20270;-79
2022/08/31 03:46:21;;;;;;;1.88;1.13;;;;;;;;;;5036810;28;20249;-79
2022/08/31 03:48:49;;;;;;;1.13;1.13;;;;;;;;;;5035808;28;20257;-78
2022/08/31 03:51:18;;;;;;;1.70;1.60;;;;;;;;;;5036624;28;20233;-78
2022/08/31 03:53:46;;;;;;;1.70;1.60;;;;;;;;;;5036851;28;20653;-78
2022/08/31 03:56:14;;;;;;;1.33;1.23;;;;;;;;;;5036656;28;20206;-78
2022/08/31 03:58:42;;;;;;;1.30;1.30;;;;;;;;;;5036441;28;20309;-78
2022/08/31 04:01:12;;;;;;;1.35;1.30;;;;;;;;;;5036421;28;20757;-77
2022/08/31 04:03:40;;;;;;;1.30;1.20;;;;;;;;;;5036521;28;20293;-79
2022/08/31 04:06:10;;;;;;;1.30;1.20;;;;;;;;;;5035978;28;20289;-79
2022/08/31 04:08:38;;;;;;;1.55;1.27;;;;;;;;;;5035817;28;20249;-78
2022/08/31 04:11:10;;;;;;;1.30;1.30;;;;;;;;;;5036240;28;20316;-78
2022/08/31 04:13:39;;;;;;;2.08;1.20;;;;;;;;;;5036112;28;20274;-78
2022/08/31 04:16:10;;;;;;;1.20;1.20;;;;;;;;;;5035866;28;20286;-78
2022/08/31 04:18:38;;;;;;;1.30;1.30;;;;;;;;;;5035594;28;20222;-78
2022/08/31 04:21:10;;;;;;;1.10;1.10;;;;;;;;;;5035037;28;20285;-78
2022/08/31 04:23:39;;;;;;;1.73;1.63;;;;;;;;;;5035864;28;20297;-79
2022/08/31 04:26:09;;;;;;;1.30;1.20;;;;;;;;;;5036007;28;20583;-78
2022/08/31 04:28:37;;;;;;;1.35;1.25;;;;;;;;;;5035362;28;20228;-78
2022/08/31 04:31:08;;;;;;;1.60;1.17;;;;;;;;;;5035167;28;20222;-79
2022/08/31 04:33:37;;;;;;;1.48;1.38;;;;;;;;;;5035324;28;20666;-78
2022/08/31 04:36:07;;;;;;;1.40;1.30;;;;;;;;;;5035534;28;20209;-78
2022/08/31 04:38:35;;;;;;;1.70;1.60;;;;;;;;;;5035503;28;20226;-77
2022/08/31 04:41:08;;;;;;;1.48;1.38;;;;;;;;;;5035050;28;20202;-78
2022/08/31 04:43:36;;;;;;;2.20;1.67;;;;;;;;;;5035617;28;20213;-79
2022/08/31 04:46:06;;;;;;;1.65;1.58;;;;;;;;;;5034888;28;20293;-79
2022/08/31 04:48:35;;;;;;;3.08;2.20;;;;;;;;;;5035263;28;20313;-78
2022/08/31 04:51:05;;;;;;;1.33;1.27;;;;;;;;;;5035664;28;20226;-77
2022/08/31 04:53:33;;;;;;;1.50;1.40;;;;;;;;;;5034893;28;20290;-79
2022/08/31 04:56:06;;;;;;;2.10;2.00;;;;;;;;;;5034742;28;20212;-79
2022/08/31 04:58:33;;;;;;;1.73;1.63;;;;;;;;;;5034684;28;20592;-77
2022/08/31 05:01:01;;;;;;;1.45;1.35;;;;;;;;;;5034991;28;20210;-79
2022/08/31 05:03:29;;;;;;;2.08;1.98;;;;;;;;;;5034560;28;20289;-78
2022/08/31 05:05:58;;;;;;;2.35;1.50;;;;;;;;;;5034936;28;20206;-79
2022/08/31 05:08:26;;;;;;;2.20;1.35;;;;;;;;;;5034392;28;20317;-80
2022/08/31 05:10:54;;;;;;;1.35;1.35;;;;;;;;;;5033062;28;20662;-80
2022/08/31 05:13:23;;;;;;;1.50;1.40;;;;;;;;;;5032499;28;20674;-80
2022/08/31 05:15:50;;;;;;;2.15;1.95;;;;;;;;;;5033254;28;20206;-81
2022/08/31 05:18:18;;;;;;;1.63;1.45;;;;;;;;;;5032687;28;20376;-80
2022/08/31 05:20:47;;;;;;;1.38;1.27;;;;;;;;;;5029654;28;20301;-81
2022/08/31 05:23:15;;;;;;;1.73;1.63;;;;;;;;;;5033110;28;20209;-81
2022/08/31 05:25:43;;;;;;;1.85;1.70;;;;;;;;;;5033636;28;20300;-81
2022/08/31 05:28:11;;;;;;;1.65;1.40;;;;;;;;;;5033251;28;20226;-82
2022/08/31 05:30:42;;;;;;;1.63;1.52;;;;;;;;;;5033734;28;20642;-81
2022/08/31 05:33:10;;;;;;;1.55;1.20;;;;;;;;;;5032671;28;20228;-81
2022/08/31 05:35:37;;;;;;;1.95;1.80;;;;;;;;;;5033515;28;20290;-81
2022/08/31 05:38:05;;;;;;;1.35;1.33;;;;;;;;;;5037995;28;20250;-81
2022/08/31 05:40:34;;;;;;;1.60;1.50;;;;;;;;;;5032815;28;20234;-81
2022/08/31 05:43:01;;;;;;;1.67;1.58;;;;;;;;;;5032348;28;20353;-81
2022/08/31 05:45:29;;;;;;;1.35;1.25;;;;;;;;;;5032501;28;20297;-81
2022/08/31 05:47:56;;;;;;;1.67;1.58;;;;;;;;;;5032034;28;20309;-81
2022/08/31 05:50:24;;;;;;;2.00;1.80;;;;;;;;;;5032888;28;20206;-81
2022/08/31 05:52:51;;;;;;;1.67;1.58;;;;;;;;;;5032558;28;20316;-80
2022/08/31 05:55:19;;;;;;;1.70;1.60;;;;;;;;;;5032647;28;20289;-81
2022/08/31 05:57:48;;;;;;;1.70;1.60;;;;;;;;;;5033316;28;20301;-82
2022/08/31 06:00:16;;;;;;;1.42;1.33;;;;;;;;;;5038920;28;20304;-81
2022/08/31 06:02:43;;;;;;;1.70;1.60;;;;;;;;;;5039217;28;20277;-82
2022/08/31 06:05:11;;;;;;;2.30;1.67;;;;;;;;;;5039667;28;20289;-83
2022/08/31 06:07:38;;;;;;;4.15;2.03;;;;;;;;;;5038362;28;20229;-81
2022/08/31 06:10:08;;;;;;;2.90;2.15;;;;;;;;;;5046391;23;20232;-82
2022/08/31 06:12:37;;;;;;;2.17;1.48;;;;;;;;;;5042833;28;20214;-81
2022/08/31 06:15:08;;;;;;;1.70;1.60;;;;;;;;;;5043485;28;20568;-83
2022/08/31 06:17:36;;;;;;;1.30;1.27;;;;;;;;;;5042815;28;20250;-82
2022/08/31 06:20:05;;;;;;;1.77;1.67;;;;;;;;;;5043070;28;20260;-82
2022/08/31 06:22:36;;;;;;;1.45;1.35;;;;;;;;;;5042843;28;20202;-83
2022/08/31 06:25:05;;;;;;;1.15;1.15;;;;;;;;;;5042363;28;20186;-83
2022/08/31 06:27:34;;;;;;;1.60;1.50;;;;;;;;;;5042584;28;20209;-83
2022/08/31 06:30:02;;;;;;;1.60;1.50;;;;;;;;;;5043408;28;20238;-81
2022/08/31 06:32:33;;;;;;;1.30;1.25;;;;;;;;;;5043039;28;20232;-83
2022/08/31 06:35:00;;;;;;;1.42;1.33;;;;;;;;;;5042608;28;20681;-84
2022/08/31 06:37:28;;;;;;;1.25;1.20;;;;;;;;;;5041652;28;20202;-83
2022/08/31 06:39:56;;;;;;;1.27;1.27;;;;;;;;;;5050378;28;20193;-83
2022/08/31 06:42:23;;;;;;;1.30;1.30;;;;;;;;;;5050163;28;20228;-83
2022/08/31 06:44:51;;;;;;;1.27;1.20;;;;;;;;;;5042442;28;20213;-83
2022/08/31 06:47:19;;;;;;;1.00;1.00;;;;;;;;;;5041588;28;20206;-83
2022/08/31 06:49:47;;;;;;;1.20;1.20;;;;;;;;;;5042796;28;20293;-84
2022/08/31 06:52:16;;;;;;;1.33;1.33;;;;;;;;;;5042119;28;20253;-84
2022/08/31 06:54:43;;;;;;;1.70;1.60;;;;;;;;;;5041844;28;20249;-84
2022/08/31 06:57:11;;;;;;;2.13;1.38;;;;;;;;;;5042085;28;20311;-82
2022/08/31 06:59:38;;;;;;;1.60;1.50;;;;;;;;;;5042590;28;20628;-83
2022/08/31 07:02:06;;;;;;;1.17;1.17;;;;;;;;;;5042104;28;20677;-83
2022/08/31 07:04:37;;;;;;;1.25;1.15;;;;;;;;;;5042193;28;20305;-83
2022/08/31 07:07:10;;;;;;;1.20;1.20;;;;;;;;;;5043215;28;20261;-83
2022/08/31 07:09:38;;;;;;;1.38;1.35;;;;;;;;;;5041700;28;20218;-84
2022/08/31 07:12:07;;;;;;;1.75;1.65;;;;;;;;;;5039952;28;20210;-83
2022/08/31 07:14:36;;;;;;;1.48;1.38;;;;;;;;;;5039515;28;20260;-83
2022/08/31 07:17:04;;;;;;;1.90;1.80;;;;;;;;;;5039632;28;20219;-82
2022/08/31 07:19:32;;;;;;;1.52;1.42;;;;;;;;;;5039492;28;20651;-83
2022/08/31 07:22:01;;;;;;;1.25;1.25;;;;;;;;;;5039494;28;20238;-83
2022/08/31 07:24:34;;;;;;;1.50;1.13;;;;;;;;;;5040038;28;20234;-83
2022/08/31 07:27:04;;;;;;;1.70;1.60;;;;;;;;;;5039524;28;20226;-83
2022/08/31 07:29:39;;;;;;;1.75;1.40;;;;;;;;;;5039720;28;20270;-83
2022/08/31 07:32:07;;;;;;;2.20;1.52;;;;;;;;;;5040037;28;20628;-82
2022/08/31 07:34:35;;;;;;;2.63;1.63;;;;;;;;;;5039103;28;20246;-82
2022/08/31 07:42:39;;;;;;;1.50;1.40;;;;;;;;;;5040630;28;20186;-82
2022/08/31 07:45:11;;;;;;;2.00;1.90;;;;;;;;;;5039568;28;20219;-83
2022/08/31 07:47:43;;;;;;;1.48;1.40;;;;;;;;;;5038333;28;20209;-83
2022/08/31 07:50:11;;;;;;;1.30;1.20;;;;;;;;;;5029532;28;20600;-83
2022/08/31 07:52:45;;;;;;;3.78;2.08;;;;;;;;;;5019264;28;20207;-81
2022/08/31 07:55:17;;;;;;;1.90;1.80;;;;;;;;;;5020308;28;20227;-83
2022/08/31 07:57:45;;;;;;;2.85;1.55;;;;;;;;;;5018435;28;20230;-83
2022/08/31 08:00:16;;;;;;;1.80;1.70;;;;;;;;;;5018984;28;20718;-83
2022/08/31 08:02:45;;;;;;;2.15;1.95;;;;;;;;;;5020186;28;20249;-84
2022/08/31 08:05:19;;;;;;;2.83;1.60;;;;;;;;;;5019646;28;20234;-83
2022/08/31 08:07:50;;;;;;;2.63;1.77;;;;;;;;;;5019265;28;20214;-83
2022/08/31 08:10:23;;;;;;;1.95;1.80;;;;;;;;;;5032164;28;20237;-84
2022/08/31 08:13:01;;;;;;;1.55;1.45;;;;;;;;;;5040152;28;20211;-84
2022/08/31 08:15:30;;;;;;;1.55;1.27;;;;;;;;;;5040735;28;20245;-83
2022/08/31 08:17:57;;;;;;;1.80;1.70;;;;;;;;;;5040171;28;20296;-83
2022/08/31 08:20:25;;;;;;;1.50;1.40;;;;;;;;;;5038939;28;20238;-83
2022/08/31 08:22:52;;;;;;;1.67;1.58;;;;;;;;;;5038037;28;20260;-83
2022/08/31 08:25:21;;;;;;;1.60;1.40;;;;;;;;;;5038434;28;20256;-84
2022/08/31 08:27:52;;;;;;;1.60;1.50;;;;;;;;;;5039679;28;20242;-84
2022/08/31 08:30:19;;;;;;;1.77;1.67;;;;;;;;;;5039151;28;20243;-84
2022/08/31 08:32:47;;;;;;;1.83;1.50;;;;;;;;;;5039746;28;20233;-83
2022/08/31 08:35:16;;;;;;;1.65;1.30;;;;;;;;;;5039434;28;20249;-83
2022/08/31 08:37:46;;;;;;;2.42;2.33;;;;;;;;;;5038999;28;20194;-82
2022/08/31 08:40:41;;;;;;;2.10;2.00;;;;;;;;;;5039449;28;20563;-83
2022/08/31 08:43:10;;;;;;;1.67;1.45;;;;;;;;;;5039012;28;20190;-83
2022/08/31 08:45:37;;;;;;;1.83;1.73;;;;;;;;;;5040112;28;20223;-83
2022/08/31 08:48:10;;;;;;;1.63;1.52;;;;;;;;;;5038363;28;20222;-83
2022/08/31 08:50:41;;;;;;;2.42;2.22;;;;;;;;;;5037916;28;20328;-83
2022/08/31 08:53:12;;;;;;;2.00;1.90;;;;;;;;;;5037893;28;20217;-83
2022/08/31 08:55:43;;;;;;;1.80;1.70;;;;;;;;;;5037663;28;20335;-83
2022/08/31 08:58:12;;;;;;;3.15;2.60;;;;;;;;;;5038924;28;20221;-82
2022/08/31 09:00:41;;;;;;;2.33;1.95;;;;;;;;;;5040478;28;20247;-83
2022/08/31 09:03:20;;;;;;;1.92;1.83;;;;;;;;;;5039261;28;20198;-83
2022/08/31 09:06:08;;;;;;;1.58;1.48;;;;;;;;;;5037099;28;20229;-83
2022/08/31 09:09:26;;;;;;;2.03;1.92;;;;;;;;;;5037481;28;20183;-81
2022/08/31 09:12:19;;;;;;;2.20;2.10;;;;;;;;;;5013231;28;20214;-83
2022/08/31 09:15:10;;;;;;;2.90;2.55;;;;;;;;;;5018668;28;20211;-84
2022/08/31 09:17:46;;;;;;;2.17;2.08;;;;;;;;;;5025928;28;20202;-83
2022/08/31 09:20:15;;;;;;;1.73;1.63;;;;;;;;;;5039352;28;20233;-85
2022/08/31 09:22:47;;;;;;;1.55;1.55;;;;;;;;;;5037170;28;20708;-83
2022/08/31 09:25:17;;;;;;;1.60;1.50;;;;;;;;;;5035660;28;20596;-84
2022/08/31 09:27:56;;;;;;;2.13;2.03;;;;;;;;;;5036142;28;20202;-85
2022/08/31 09:30:39;;;;;;;2.67;1.83;;;;;;;;;;5036506;28;20577;-83
2022/08/31 09:33:08;;;;;;;1.60;1.50;;;;;;;;;;5035861;28;20266;-83
2022/08/31 09:35:40;;;;;;;2.10;2.00;;;;;;;;;;5036068;28;20230;-83
2022/08/31 09:38:10;;;;;;;2.72;2.42;;;;;;;;;;5036528;28;20238;-82
2022/08/31 09:40:43;;;;;;;3.42;2.50;;;;;;;;;;5035140;28;20202;-85
2022/08/31 09:43:24;;;;;;;1.83;1.70;;;;;;;;;;5035543;28;20274;-85
2022/08/31 09:45:58;;;;;;;2.53;2.42;;;;;;;;;;5035803;28;20237;-84
2022/08/31 09:48:51;;;;;;;2.30;2.20;;;;;;;;;;5035952;28;20229;-84
2022/08/31 09:51:26;;;;;;;2.67;2.47;;;;;;;;;;5036325;28;20222;-83
2022/08/31 09:56:57;;;;;;;2.20;2.10;;;;;;;;;;5035390;28;20257;-84
2022/08/31 09:59:38;;;;;;;2.22;2.10;;;;;;;;;;5036516;28;20651;-84
2022/08/31 10:02:12;;;;;;;2.67;2.58;;;;;;;;;;5035504;28;20289;-83
2022/08/31 10:04:51;;;;;;;3.13;2.30;;;;;;;;;;5037219;28;20214;-84
2022/08/31 10:07:36;;;;;;;2.30;2.20;;;;;;;;;;5035975;28;20206;-84
2022/08/31 10:10:07;;;;;;;1.88;1.77;;;;;;;;;;5036478;28;20217;-84
2022/08/31 10:12:42;;;;;;;2.13;2.03;;;;;;;;;;5036950;28;20226;-84
2022/08/31 10:15:16;;;;;;;1.90;1.80;;;;;;;;;;5036455;28;20202;-84
2022/08/31 10:17:50;;;;;;;3.50;3.20;;;;;;;;;;5037464;28;20225;-84
2022/08/31 10:20:22;;;;;;;2.33;2.22;;;;;;;;;;5037673;28;20635;-84
2022/08/31 10:22:54;;;;;;;2.28;2.10;;;;;;;;;;5036072;28;20269;-84
2022/08/31 10:25:29;;;;;;;2.03;1.92;;;;;;;;;;5036496;28;20576;-84
2022/08/31 10:28:08;;;;;;;2.40;2.20;;;;;;;;;;5036471;28;20201;-83
2022/08/31 10:30:43;;;;;;;2.65;1.90;;;;;;;;;;5034078;28;20269;-84
2022/08/31 10:33:17;;;;;;;2.00;1.90;;;;;;;;;;5036531;28;20217;-82
2022/08/31 10:35:53;;;;;;;2.22;2.05;;;;;;;;;;5034930;28;20222;-83
2022/08/31 10:38:27;;;;;;;2.30;2.10;;;;;;;;;;5034985;28;20224;-83
2022/08/31 10:41:09;;;;;;;2.47;2.05;;;;;;;;;;5034937;28;20266;-86
2022/08/31 10:43:44;;;;;;;2.45;2.25;;;;;;;;;;5034771;28;20297;-85
2022/08/31 10:46:15;;;;;;;2.10;2.00;;;;;;;;;;5038035;28;20222;-84
2022/08/31 10:48:50;;;;;;;1.65;1.55;;;;;;;;;;5038097;28;20245;-84
2022/08/31 10:51:22;;;;;;;1.33;1.30;;;;;;;;;;5038199;28;20212;-82
2022/08/31 10:54:03;;;;;;;2.10;1.90;;;;;;;;;;5037648;28;20193;-83
2022/08/31 10:56:38;;;;;;;1.92;1.83;;;;;;;;;;5037468;28;20243;-86
2022/08/31 10:59:20;;;;;;;2.13;1.92;;;;;;;;;;5037741;28;20645;-84
2022/08/31 11:01:57;;;;;;;3.33;2.78;;;;;;;;;;5036967;28;20202;-85
2022/08/31 11:04:52;;;;;;;2.42;2.33;;;;;;;;;;5037243;28;20240;-85
2022/08/31 11:07:36;;;;;;;2.03;1.92;;;;;;;;;;5036653;28;20215;-82
2022/08/31 11:10:18;;;;;;;2.45;2.03;;;;;;;;;;5036977;28;20275;-83
2022/08/31 11:12:50;;;;;;;2.10;2.00;;;;;;;;;;5037010;28;20218;-83
2022/08/31 11:15:46;;;;;;;1.90;1.67;;;;;;;;;;5036948;28;20245;-85
2022/08/31 11:19:06;;;;;;;1.73;1.63;;;;;;;;;;5037519;28;20218;-87
2022/08/31 11:22:14;;;;;;;3.10;2.63;;;;;;;;;;4978198;28;20605;-85
2022/08/31 11:25:16;;;;;;;2.20;2.10;;;;;;;;;;5017772;28;20711;-84
2022/08/31 11:27:47;;;;;;;2.17;2.00;;;;;;;;;;4968325;28;20210;-85
2022/08/31 11:30:22;;;;;;;2.08;1.63;;;;;;;;;;5017688;28;20650;-83
2022/08/31 11:32:53;;;;;;;1.98;1.88;;;;;;;;;;5017381;28;20207;-86
2022/08/31 11:36:01;;;;;;;1.90;1.80;;;;;;;;;;5034262;28;20309;-84
2022/08/31 11:39:21;;;;;;;1.80;1.70;;;;;;;;;;5029300;28;20289;-87
2022/08/31 11:41:49;;;;;;;1.30;1.20;;;;;;;;;;5015419;28;20206;-84
2022/08/31 11:45:02;;;;;;;3.15;1.83;;;;;;;;;;5056594;28;20194;-84
2022/08/31 11:47:42;;;;;;;1.90;1.80;;;;;;;;;;5055279;28;20193;-85
2022/08/31 11:50:46;;;;;;;1.58;1.48;;;;;;;;;;5056683;28;20205;-83
2022/08/31 11:53:30;;;;;;;1.88;1.77;;;;;;;;;;5036763;28;20570;-83
2022/08/31 11:56:03;;;;;;;1.63;1.52;;;;;;;;;;5035742;28;20675;-85
2022/08/31 11:58:34;;;;;;;1.98;1.88;;;;;;;;;;5036456;28;20544;-84
2022/08/31 12:01:34;;;;;;;1.52;1.42;;;;;;;;;;5036444;28;20608;-84
2022/08/31 12:04:05;;;;;;;3.30;2.03;;;;;;;;;;5035901;28;20202;-84
2022/08/31 12:07:00;;;;;;;2.33;1.70;;;;;;;;;;5036074;28;20302;-86
2022/08/31 12:10:25;;;;;;;1.77;1.67;;;;;;;;;;5036118;28;20208;-86
2022/08/31 12:13:29;;;;;;;2.42;1.55;;;;;;;;;;5015395;28;20238;-83
2022/08/31 12:16:36;;;;;;;1.70;1.60;;;;;;;;;;5015025;28;20322;-83
2022/08/31 12:25:27;;;;;;;1.30;1.30;;;;;;;;;;5017806;28;20225;-86
2022/08/31 12:28:06;;;;;;;1.38;1.27;;;;;;;;;;5016963;28;20215;-83
2022/08/31 12:30:34;;;;;;;1.20;1.20;;;;;;;;;;5015946;28;20222;-83
2022/08/31 12:33:08;;;;;;;1.60;1.48;;;;;;;;;;5016752;28;20321;-86
2022/08/31 12:35:35;;;;;;;1.27;1.17;;;;;;;;;;5016369;28;20258;-85
2022/08/31 12:38:06;;;;;;;0.93;0.93;;;;;;;;;;5016833;28;20234;-86
2022/08/31 12:40:37;;;;;;;1.40;1.30;;;;;;;;;;5038022;28;20233;-86
2022/08/31 12:43:09;;;;;;;1.40;1.30;;;;;;;;;;5034546;28;20318;-86
2022/08/31 12:46:21;;;;;;;1.20;1.20;;;;;;;;;;5036018;28;20309;-86
2022/08/31 12:49:16;;;;;;;2.92;1.25;;;;;;;;;;5033899;28;20293;-86
2022/08/31 12:51:48;;;;;;;0.93;0.93;;;;;;;;;;5035815;28;20226;-83
2022/08/31 12:54:52;;;;;;;1.00;1.00;;;;;;;;;;5036336;28;20294;-84
2022/08/31 12:57:37;;;;;;;1.95;0.95;;;;;;;;;;5036237;28;20252;-85
2022/08/31 13:00:09;;;;;;;0.95;0.95;;;;;;;;;;5037254;28;20651;-84
2022/08/31 13:02:41;;;;;;;1.10;0.90;;;;;;;;;;5036177;28;20405;-83
2022/08/31 13:05:21;;;;;;;1.10;1.00;;;;;;;;;;5036896;28;20293;-84
2022/08/31 13:07:49;;;;;;;1.70;1.60;;;;;;;;;;5037258;28;20641;-84
2022/08/31 13:10:30;;;;;;;1.10;1.10;;;;;;;;;;5037673;28;20622;-86
2022/08/31 13:13:02;;;;;;;1.25;1.25;;;;;;;;;;5035943;28;20222;-85
2022/08/31 13:15:34;;;;;;;2.63;1.17;;;;;;;;;;5036853;28;20678;-85
2022/08/31 13:18:02;;;;;;;1.27;1.20;;;;;;;;;;5034252;28;20221;-83
2022/08/31 13:20:41;;;;;;;1.40;1.30;;;;;;;;;;5034674;28;20237;-84
2022/08/31 13:23:12;;;;;;;2.67;1.23;;;;;;;;;;5034745;28;20248;-86
2022/08/31 13:25:39;;;;;;;1.98;1.30;;;;;;;;;;5034343;28;20219;-86
2022/08/31 13:28:28;;;;;;;1.65;1.55;;;;;;;;;;5035121;28;20203;-86
2022/08/31 13:31:00;;;;;;;1.23;1.23;;;;;;;;;;5051588;28;20193;-82
2022/08/31 13:33:31;;;;;;;0.98;0.98;;;;;;;;;;5051960;28;20243;-85
2022/08/31 13:36:04;;;;;;;1.40;1.23;;;;;;;;;;5034345;28;20253;-85
2022/08/31 13:38:42;;;;;;;1.30;1.20;;;;;;;;;;5035299;28;20229;-85
2022/08/31 13:41:17;;;;;;;1.08;1.08;;;;;;;;;;5015232;28;20358;-84
2022/08/31 13:43:57;;;;;;;0.80;0.80;;;;;;;;;;5014793;28;20187;-82
2022/08/31 13:46:27;;;;;;;1.40;1.30;;;;;;;;;;5014531;28;20231;-85
2022/08/31 13:48:57;;;;;;;1.05;1.05;;;;;;;;;;5014757;28;20225;-84
2022/08/31 13:51:28;;;;;;;1.20;1.10;;;;;;;;;;5014821;28;20213;-82
2022/08/31 13:54:10;;;;;;;1.20;1.10;;;;;;;;;;5016259;28;20606;-84
2022/08/31 13:56:57;;;;;;;1.13;1.13;;;;;;;;;;5014604;28;20266;-84
2022/08/31 13:59:36;;;;;;;1.20;1.20;;;;;;;;;;5015966;28;20690;-85
2022/08/31 14:02:26;;;;;;;1.50;1.40;;;;;;;;;;5015420;28;20748;-85
2022/08/31 14:05:02;;;;;;;1.38;1.08;;;;;;;;;;5028017;28;20206;-85
2022/08/31 14:07:50;;;;;;;1.90;1.80;;;;;;;;;;5036224;28;20183;-85
2022/08/31 14:10:21;;;;;;;1.40;1.30;;;;;;;;;;5036899;28;20218;-84
2022/08/31 14:12:53;;;;;;;1.15;0.90;;;;;;;;;;5036078;28;20183;-83
2022/08/31 14:15:35;;;;;;;1.20;1.20;;;;;;;;;;5035575;28;20248;-85
2022/08/31 14:18:16;;;;;;;1.13;1.13;;;;;;;;;;5034881;28;20223;-83
2022/08/31 14:20:46;;;;;;;1.45;1.35;;;;;;;;;;5037071;28;20190;-82
2022/08/31 14:23:34;;;;;;;1.08;1.08;;;;;;;;;;5038957;28;20209;-85
2022/08/31 14:26:05;;;;;;;1.30;1.23;;;;;;;;;;5038246;28;20229;-82
2022/08/31 14:28:40;;;;;;;0.90;0.90;;;;;;;;;;5038624;28;20190;-84
2022/08/31 14:31:24;;;;;;;1.05;1.05;;;;;;;;;;5038290;28;20516;-83
2022/08/31 14:34:13;;;;;;;2.55;1.60;;;;;;;;;;5031987;28;20238;-84
2022/08/31 14:36:49;;;;;;;1.00;1.00;;;;;;;;;;5014394;28;20230;-83
2022/08/31 14:39:17;;;;;;;2.35;1.35;;;;;;;;;;5023139;28;20284;-84
2022/08/31 14:41:44;;;;;;;2.28;1.02;;;;;;;;;;5039756;28;20286;-83
2022/08/31 14:44:13;;;;;;;0.82;0.82;;;;;;;;;;5037616;28;20206;-84
2022/08/31 14:46:43;;;;;;;1.00;1.00;;;;;;;;;;5038182;28;20224;-84
2022/08/31 14:49:11;;;;;;;0.90;0.90;;;;;;;;;;5037958;28;20289;-85
2022/08/31 14:51:40;;;;;;;1.23;1.13;;;;;;;;;;5039235;28;20234;-85
2022/08/31 14:54:09;;;;;;;1.50;1.40;;;;;;;;;;5038143;28;20686;-83
2022/08/31 14:56:46;;;;;;;1.10;1.10;;;;;;;;;;5037288;28;20313;-84
2022/08/31 14:59:17;;;;;;;0.98;0.98;;;;;;;;;;5036976;28;20182;-84
2022/08/31 15:01:49;;;;;;;0.90;0.90;;;;;;;;;;5037497;28;20202;-84
2022/08/31 15:04:19;;;;;;;1.00;1.00;;;;;;;;;;5037470;28;20203;-85
2022/08/31 15:06:53;;;;;;;1.00;1.00;;;;;;;;;;5037885;28;20250;-83
2022/08/31 15:09:22;;;;;;;1.10;1.10;;;;;;;;;;5037138;28;20193;-85
2022/08/31 15:11:50;;;;;;;1.98;1.30;;;;;;;;;;5037795;28;20277;-87
2022/08/31 15:14:17;;;;;;;1.08;1.08;;;;;;;;;;5037386;28;20203;-84
2022/08/31 15:16:49;;;;;;;0.57;0.57;;;;;;;;;;5035591;28;20306;-83
2022/08/31 15:19:17;;;;;;;0.70;0.70;;;;;;;;;;5036710;28;20183;-85
2022/08/31 15:21:49;;;;;;;1.00;1.00;;;;;;;;;;5037841;28;20233;-82
2022/08/31 15:24:18;;;;;;;1.05;1.05;;;;;;;;;;5038307;28;20194;-84
2022/08/31 15:26:46;;;;;;;0.88;0.88;;;;;;;;;;5037625;28;20332;-82
2022/08/31 15:29:14;;;;;;;1.27;1.17;;;;;;;;;;5036870;28;20241;-84
2022/08/31 15:31:45;;;;;;;0.80;0.80;;;;;;;;;;5035902;28;20653;-83
2022/08/31 15:34:17;;;;;;;1.50;0.90;;;;;;;;;;5037870;28;20203;-83
2022/08/31 15:36:50;;;;;;;1.02;1.02;;;;;;;;;;5036784;28;20218;-83